Messwerte Pawtucket

Temperatur

Temperatur
°C
1576216800 1.00 1.00 -6
1576220400 2.00 2.00 -6
1576224000 3.00 3.00 -6
1576227600 4.00 4.00 -6
1576231200 5.00 5.00 -4
1576234800 6.00 6.00 -4
1576238400 7.00 7.00 -4
1576242000 8.00 8.00 -3
1576245600 9.00 9.00 -2
1576249200 10.00 10.00 1
1576252800 11.00 11.00 1
1576256400 12.00 12.00
1576260000 13.00 13.00 2
1576263600 14.00 14.00 3
1576267200 15.00 15.00 3
1576270800 16.00 16.00 3
1576274400 17.00 17.00 4
1576278000 18.00 18.00
1576281600 19.00 19.00 3
1576285200 20.00 20.00 3
1576288800 21.00 21.00 3
1576292400 22.00 22.00 3
1576296000 23.00 23.00 3
1576299600 0.00 0.00

Wir danken unserem Partner:

Aktuellste Messwerte

Wettercharakter
Wetter: bedeckt, wenig Regen
Temperatur
3 °C
Feuchtigkeit
100 %
Wind
15 km/hWindrichtung: Nordost
Luftdruck
1018 hPa
Messzeit: 14. Dezember 2019, 0.00Datenquelle: METAR

Weitere Messstationen in der Nähe

Messstation Temperatur Entfernung
Providence 7 °C 22 km
North Kingstown 7 °C 36 km
Taunton 3 °C 39 km
Norwood 4 °C 40 km
East Milton 7 °C 45 km
Newport 10 °C 47 km
Worcester 2 °C 50 km

Wind

Windrichtung Böen Mittelwind
° km/h km/h
1576216800 1.00 0.00 - 1.00 110° 5
1576220400 2.00 1.00 - 2.00 0
1576224000 3.00 2.00 - 3.00 120° 5
1576227600 4.00 3.00 - 4.00 130° 10
1576231200 5.00 4.00 - 5.00 120° 15
1576234800 6.00 5.00 - 6.00 120° 10
1576238400 7.00 6.00 - 7.00 110° 10
1576242000 8.00 7.00 - 8.00 100° 5
1576245600 9.00 8.00 - 9.00 110° 10
1576249200 10.00 9.00 - 10.00 20° 10
1576252800 11.00 10.00 - 11.00 30° 5
1576256400 12.00 11.00 - 12.00
1576260000 13.00 12.00 - 13.00 80° 5
1576263600 14.00 13.00 - 14.00 80° 5
1576267200 15.00 14.00 - 15.00 90° 10
1576270800 16.00 15.00 - 16.00 90° 5
1576274400 17.00 16.00 - 17.00 80° 10
1576278000 18.00 17.00 - 18.00
1576281600 19.00 18.00 - 19.00 60° 5
1576285200 20.00 19.00 - 20.00 60° 5
1576288800 21.00 20.00 - 21.00 70° 10
1576292400 22.00 21.00 - 22.00 50° 10
1576296000 23.00 22.00 - 23.00 30° 10
1576299600 0.00 23.00 - 0.00

Ihre Wetterstation

Fehlt Ihre Wetterstation auf unserem Portal?

Schreiben Sie an network@meteonews.ch

Klima

Wann ist es am wärmsten? Wann regnet es am wenigsten? Unsere Klimadaten geben Auskunft.